Terminal Aerodrome Forecast
Issued by NWS

Home | Current Version | Previous Version | Text Only | Print | Product List | Glossary On
Versions: 1 2 3 4 5 6 7 8 9 10 11 12 13 14 15 16 17 18
000
FTUS44 KTSA 011100
TAFFYV
TAF
KFYV 011122Z 0112/0212 36010KT P6SM VCSH SCT025 BKN250
      TEMPO 0112/0115 VRB15G30KT 6SM -TSRA BKN025CB
     FM011500 15010KT P6SM SCT025 BKN250
     FM011800 19015G22KT P6SM SCT050 BKN250
     FM020200 18010KT P6SM VCTS SCT050CB BKN150
      TEMPO 0203/0207 VRB15G25KT 6SM -TSRA BKN025CB
     FM020800 18007KT P6SM BKN100=

USA.gov is the U.S. government's official web portal to all federal, state and local government web resources and services.